Time;durP1;ratioP1;P1;durP2;ratioP2;P2;SDS_P1;SDS_P2;PMS_P1;PMS_P2;Temp;Humidity;BMP_temperature;BMP_pressure;BME280_temperature;BME280_humidity;BME280_pressure;Samples;Min_cycle;Max_cycle;Signal;HPM_P1;HPM_P2
2022/02/19 00:00:05;;;;;;;9.07;2.10;;;;;;;;;;5061516;28;20524;-70
2022/02/19 00:02:51;;;;;;;7.65;2.20;;;;;;;;;;5055534;28;20013;-66
2022/02/19 00:05:37;;;;;;;7.22;2.22;;;;;;;;;;5075342;28;20458;-72
2022/02/19 00:08:22;;;;;;;9.35;1.90;;;;;;;;;;5075687;28;20030;-70
2022/02/19 00:11:08;;;;;;;7.22;2.92;;;;;;;;;;5075420;28;20089;-70
2022/02/19 00:13:54;;;;;;;6.97;1.80;;;;;;;;;;5076104;28;20036;-71
2022/02/19 00:16:39;;;;;;;6.90;2.45;;;;;;;;;;5075167;28;20433;-72
2022/02/19 00:19:25;;;;;;;7.20;1.92;;;;;;;;;;5075577;28;20076;-71
2022/02/19 00:22:10;;;;;;;7.68;2.45;;;;;;;;;;5088385;28;20458;-71
2022/02/19 00:24:55;;;;;;;7.13;2.10;;;;;;;;;;5061958;28;20024;-70
2022/02/19 00:27:40;;;;;;;10.52;1.98;;;;;;;;;;5069602;28;20495;-71
2022/02/19 00:30:26;;;;;;;8.75;2.03;;;;;;;;;;5056425;28;20033;-71
2022/02/19 00:33:11;;;;;;;5.43;1.70;;;;;;;;;;5075609;28;20379;-70
2022/02/19 00:35:57;;;;;;;8.05;2.08;;;;;;;;;;5074774;28;20055;-71
2022/02/19 00:38:43;;;;;;;12.05;2.85;;;;;;;;;;5060531;28;20036;-69
2022/02/19 00:41:28;;;;;;;10.05;2.25;;;;;;;;;;5074513;28;20482;-72
2022/02/19 00:44:13;;;;;;;10.32;2.30;;;;;;;;;;5075696;28;20062;-72
2022/02/19 00:46:59;;;;;;;7.95;2.03;;;;;;;;;;5074823;28;20031;-71
2022/02/19 00:49:44;;;;;;;5.50;2.25;;;;;;;;;;5075109;28;20478;-72
2022/02/19 00:52:30;;;;;;;12.75;2.70;;;;;;;;;;5074112;28;20040;-71
2022/02/19 00:55:15;;;;;;;7.60;1.92;;;;;;;;;;5061287;28;20020;-64
2022/02/19 00:58:00;;;;;;;13.10;2.47;;;;;;;;;;5060391;28;20108;-66
2022/02/19 01:00:46;;;;;;;8.45;2.00;;;;;;;;;;5075273;28;20055;-71
2022/02/19 01:03:31;;;;;;;8.10;2.17;;;;;;;;;;5060468;28;20414;-71
2022/02/19 01:06:16;;;;;;;6.55;1.63;;;;;;;;;;5068950;28;20078;-73
2022/02/19 01:09:02;;;;;;;8.18;1.95;;;;;;;;;;5074438;28;20040;-72
2022/02/19 01:11:47;;;;;;;7.00;2.25;;;;;;;;;;5074842;28;20395;-70
2022/02/19 01:14:32;;;;;;;8.80;2.20;;;;;;;;;;5069396;28;20024;-64
2022/02/19 01:17:18;;;;;;;11.20;2.60;;;;;;;;;;5074431;28;20479;-69
2022/02/19 01:20:04;;;;;;;9.30;1.92;;;;;;;;;;5074746;28;20040;-68
2022/02/19 01:22:49;;;;;;;9.10;1.85;;;;;;;;;;5074193;28;20124;-70
2022/02/19 01:25:35;;;;;;;10.52;2.13;;;;;;;;;;5074750;28;20081;-72
2022/02/19 01:28:20;;;;;;;8.77;2.08;;;;;;;;;;5059987;28;20394;-69
2022/02/19 01:31:05;;;;;;;5.15;1.85;;;;;;;;;;5074613;28;20043;-69
2022/02/19 01:33:51;;;;;;;7.22;2.05;;;;;;;;;;5060324;28;20444;-67
2022/02/19 01:36:37;;;;;;;7.93;2.53;;;;;;;;;;5082185;28;20043;-68
2022/02/19 01:39:22;;;;;;;10.43;2.38;;;;;;;;;;5066533;28;20478;-69
2022/02/19 01:42:07;;;;;;;6.28;1.88;;;;;;;;;;5074708;28;20016;-69
2022/02/19 01:44:53;;;;;;;8.52;2.53;;;;;;;;;;5074080;28;20032;-68
2022/02/19 01:47:41;;;;;;;6.13;1.85;;;;;;;;;;5073228;28;20052;-71
2022/02/19 01:50:26;;;;;;;4.28;1.70;;;;;;;;;;5061251;28;20479;-72
2022/02/19 01:53:12;;;;;;;8.27;2.88;;;;;;;;;;5060981;28;20085;-67
2022/02/19 01:55:58;;;;;;;7.85;1.98;;;;;;;;;;5092015;28;20024;-66
2022/02/19 01:58:44;;;;;;;7.30;2.13;;;;;;;;;;5072361;28;20441;-67
2022/02/19 02:01:29;;;;;;;8.68;1.85;;;;;;;;;;5063405;28;20029;-65
2022/02/19 02:04:14;;;;;;;8.38;2.42;;;;;;;;;;5060977;28;20082;-66
2022/02/19 02:07:01;;;;;;;9.75;2.53;;;;;;;;;;5078315;28;20028;-68
2022/02/19 02:09:46;;;;;;;6.38;1.98;;;;;;;;;;5077842;28;20054;-64
2022/02/19 02:12:33;;;;;;;11.05;2.53;;;;;;;;;;5078040;28;20059;-68
2022/02/19 02:15:28;;;;;;;10.77;1.90;;;;;;;;;;5077660;28;20024;-70
2022/02/19 02:18:13;;;;;;;12.77;2.60;;;;;;;;;;5078054;28;20402;-68
2022/02/19 02:20:59;;;;;;;7.18;2.03;;;;;;;;;;5077543;28;20047;-69
2022/02/19 02:23:44;;;;;;;5.65;1.83;;;;;;;;;;5092211;28;20024;-68
2022/02/19 02:26:29;;;;;;;11.13;2.55;;;;;;;;;;5090784;28;20517;-68
2022/02/19 02:29:14;;;;;;;10.43;2.47;;;;;;;;;;5063991;28;20063;-71
2022/02/19 02:31:59;;;;;;;12.45;2.85;;;;;;;;;;5084852;28;20050;-68
2022/02/19 02:34:54;;;;;;;8.57;1.85;;;;;;;;;;5091117;28;20036;-69
2022/02/19 02:37:39;;;;;;;9.95;2.20;;;;;;;;;;5057727;28;20085;-68
2022/02/19 02:40:24;;;;;;;10.60;2.47;;;;;;;;;;5061134;28;20183;-69
2022/02/19 02:43:10;;;;;;;8.43;2.67;;;;;;;;;;5077868;28;20123;-71
2022/02/19 02:45:55;;;;;;;10.95;2.17;;;;;;;;;;5077120;28;20413;-72
2022/02/19 02:48:41;;;;;;;9.70;2.17;;;;;;;;;;5077720;28;20080;-66
2022/02/19 02:51:26;;;;;;;10.18;2.70;;;;;;;;;;5076807;28;20036;-69
2022/02/19 02:54:11;;;;;;;7.97;2.55;;;;;;;;;;5077578;28;20039;-67
2022/02/19 02:56:56;;;;;;;8.25;2.03;;;;;;;;;;5062690;28;20073;-67
2022/02/19 02:59:42;;;;;;;11.18;2.45;;;;;;;;;;5077476;28;20028;-67
2022/02/19 03:02:29;;;;;;;10.50;2.22;;;;;;;;;;5074704;28;20074;-68
2022/02/19 03:05:15;;;;;;;9.93;3.97;;;;;;;;;;5069872;28;20044;-65
2022/02/19 03:08:00;;;;;;;8.45;2.47;;;;;;;;;;5070747;28;20203;-66
2022/02/19 03:10:45;;;;;;;9.52;2.58;;;;;;;;;;5077199;28;20051;-66
2022/02/19 03:13:30;;;;;;;9.38;2.30;;;;;;;;;;5076549;28;20043;-66
2022/02/19 03:16:15;;;;;;;16.55;2.63;;;;;;;;;;5077117;28;20032;-68
2022/02/19 03:19:01;;;;;;;6.15;1.85;;;;;;;;;;5089855;28;20124;-66
2022/02/19 03:21:46;;;;;;;12.45;2.58;;;;;;;;;;5091058;28;20063;-67
2022/02/19 03:24:31;;;;;;;9.48;3.03;;;;;;;;;;5053800;28;20086;-66
2022/02/19 03:27:17;;;;;;;12.30;2.30;;;;;;;;;;5076182;28;20053;-68
2022/02/19 03:30:02;;;;;;;7.88;2.22;;;;;;;;;;5076995;28;20028;-68
2022/02/19 03:32:49;;;;;;;9.55;2.25;;;;;;;;;;5060539;28;20039;-67
2022/02/19 03:35:34;;;;;;;13.10;2.03;;;;;;;;;;5076475;28;20466;-68
2022/02/19 03:38:19;;;;;;;6.35;2.58;;;;;;;;;;5076209;28;20016;-67
2022/02/19 03:41:05;;;;;;;8.10;1.95;;;;;;;;;;5076900;28;20506;-63
2022/02/19 03:43:50;;;;;;;10.27;2.10;;;;;;;;;;5062176;28;20107;-68
2022/02/19 03:46:38;;;;;;;10.25;2.15;;;;;;;;;;5076580;28;20066;-67
2022/02/19 03:49:23;;;;;;;9.88;2.30;;;;;;;;;;5075868;28;20027;-66
2022/02/19 03:52:09;;;;;;;9.35;3.08;;;;;;;;;;5076208;28;20039;-69
2022/02/19 03:54:54;;;;;;;5.70;1.90;;;;;;;;;;5071158;28;20111;-67
2022/02/19 03:57:39;;;;;;;6.63;1.85;;;;;;;;;;5076313;28;20031;-68
2022/02/19 04:00:25;;;;;;;8.10;2.05;;;;;;;;;;5075967;28;20103;-65
2022/02/19 04:03:10;;;;;;;7.97;2.97;;;;;;;;;;5075965;28;20490;-69
2022/02/19 04:05:56;;;;;;;13.75;2.53;;;;;;;;;;5069603;28;20110;-69
2022/02/19 04:08:41;;;;;;;9.88;2.17;;;;;;;;;;5069942;28;20058;-70
2022/02/19 04:11:27;;;;;;;8.13;1.85;;;;;;;;;;5055753;28;20589;-68
2022/02/19 04:14:12;;;;;;;7.18;1.73;;;;;;;;;;5070494;28;20024;-68
2022/02/19 04:16:58;;;;;;;6.90;2.00;;;;;;;;;;5076081;28;20032;-69
2022/02/19 04:19:43;;;;;;;6.88;2.47;;;;;;;;;;5060847;28;20522;-69
2022/02/19 04:22:28;;;;;;;8.77;2.15;;;;;;;;;;5075525;28;20039;-64
2022/02/19 04:25:14;;;;;;;9.55;2.45;;;;;;;;;;5070554;28;20028;-64
2022/02/19 04:28:03;;;;;;;6.82;1.70;;;;;;;;;;5075777;28;20028;-65
2022/02/19 04:30:48;;;;;;;8.20;2.03;;;;;;;;;;5075274;28;20130;-65
2022/02/19 04:33:33;;;;;;;11.88;2.60;;;;;;;;;;5061738;28;20032;-64
2022/02/19 04:36:19;;;;;;;13.73;2.60;;;;;;;;;;5074664;28;20555;-72
2022/02/19 04:39:04;;;;;;;8.00;1.80;;;;;;;;;;5075555;28;20368;-73
2022/02/19 04:41:49;;;;;;;9.68;2.00;;;;;;;;;;5060372;28;20506;-65
2022/02/19 04:44:36;;;;;;;13.15;2.47;;;;;;;;;;5061538;28;20028;-66
2022/02/19 04:47:21;;;;;;;8.30;2.10;;;;;;;;;;5074286;28;20502;-65
2022/02/19 04:50:07;;;;;;;8.27;1.90;;;;;;;;;;5075473;28;20027;-64
2022/02/19 04:52:53;;;;;;;9.32;2.75;;;;;;;;;;5055223;28;20032;-66
2022/02/19 04:55:38;;;;;;;6.28;1.70;;;;;;;;;;5063343;28;20486;-66
2022/02/19 04:58:23;;;;;;;9.20;2.35;;;;;;;;;;5068955;28;20021;-64
2022/02/19 05:01:08;;;;;;;9.82;2.10;;;;;;;;;;5062911;28;20032;-64
2022/02/19 05:03:54;;;;;;;8.82;2.20;;;;;;;;;;5074996;28;20031;-64
2022/02/19 05:06:39;;;;;;;12.60;2.25;;;;;;;;;;5074205;28;20016;-65
2022/02/19 05:09:24;;;;;;;12.40;2.35;;;;;;;;;;5074563;28;20555;-66
2022/02/19 05:12:10;;;;;;;11.45;1.95;;;;;;;;;;5073703;28;20157;-65
2022/02/19 05:14:55;;;;;;;6.78;1.92;;;;;;;;;;5074730;28;20024;-64
2022/02/19 05:17:50;;;;;;;10.68;1.95;;;;;;;;;;5074129;28;20081;-68
2022/02/19 05:20:37;;;;;;;8.98;2.30;;;;;;;;;;5074656;28;20476;-64
2022/02/19 05:23:22;;;;;;;6.85;1.98;;;;;;;;;;5073937;28;20023;-65
2022/02/19 05:26:08;;;;;;;6.15;1.92;;;;;;;;;;5088566;28;20028;-63
2022/02/19 05:28:53;;;;;;;12.50;2.72;;;;;;;;;;5053745;28;20028;-65
2022/02/19 05:31:38;;;;;;;8.13;2.10;;;;;;;;;;5054591;28;20024;-63
2022/02/19 05:34:23;;;;;;;8.00;2.13;;;;;;;;;;5074347;28;20028;-68
2022/02/19 05:37:09;;;;;;;6.60;1.98;;;;;;;;;;5060125;28;20024;-64
2022/02/19 05:39:54;;;;;;;10.15;2.28;;;;;;;;;;5074815;28;20429;-63
2022/02/19 05:42:39;;;;;;;10.88;2.13;;;;;;;;;;5060067;28;20047;-63
2022/02/19 05:45:24;;;;;;;7.45;1.95;;;;;;;;;;5074710;28;20032;-61
2022/02/19 05:48:10;;;;;;;10.05;3.08;;;;;;;;;;5073951;28;20571;-63
2022/02/19 05:50:55;;;;;;;12.20;2.70;;;;;;;;;;5060556;28;20032;-66
2022/02/19 05:53:40;;;;;;;9.82;2.13;;;;;;;;;;5059362;28;20497;-70
2022/02/19 05:56:25;;;;;;;11.52;2.80;;;;;;;;;;5059606;28;20020;-71
2022/02/19 05:59:11;;;;;;;10.75;2.22;;;;;;;;;;5073721;28;20074;-70
2022/02/19 06:01:56;;;;;;;11.88;2.42;;;;;;;;;;5074506;28;20028;-70
2022/02/19 06:04:41;;;;;;;8.98;1.80;;;;;;;;;;5073285;28;20115;-72
2022/02/19 06:07:27;;;;;;;10.48;2.53;;;;;;;;;;5054211;28;20059;-72
2022/02/19 06:10:12;;;;;;;9.80;1.80;;;;;;;;;;5069293;28;20024;-72
2022/02/19 06:12:57;;;;;;;9.32;2.30;;;;;;;;;;5074508;28;20028;-68
2022/02/19 06:15:42;;;;;;;7.60;2.10;;;;;;;;;;5075064;28;20115;-67
2022/02/19 06:18:28;;;;;;;11.38;2.40;;;;;;;;;;5073784;28;20048;-68
2022/02/19 06:21:13;;;;;;;13.05;3.42;;;;;;;;;;5073760;28;20043;-66
2022/02/19 06:23:58;;;;;;;6.90;1.98;;;;;;;;;;5081856;28;20035;-65
2022/02/19 06:26:43;;;;;;;9.60;2.15;;;;;;;;;;5074637;28;20024;-67
2022/02/19 06:29:29;;;;;;;10.98;2.65;;;;;;;;;;5056505;28;20058;-66
2022/02/19 06:32:14;;;;;;;11.25;1.98;;;;;;;;;;5073983;28;20495;-69
2022/02/19 06:34:59;;;;;;;11.27;2.47;;;;;;;;;;5073530;28;20047;-68
2022/02/19 06:37:46;;;;;;;11.45;2.45;;;;;;;;;;5076743;28;20040;-69
2022/02/19 06:40:31;;;;;;;9.30;2.00;;;;;;;;;;5056995;28;20032;-69
2022/02/19 06:43:16;;;;;;;10.43;2.58;;;;;;;;;;5071737;28;20027;-70
2022/02/19 06:46:02;;;;;;;8.63;2.00;;;;;;;;;;5067727;28;20044;-67
2022/02/19 06:48:47;;;;;;;6.32;2.38;;;;;;;;;;5057610;28;20155;-64
2022/02/19 06:51:33;;;;;;;9.32;2.03;;;;;;;;;;5070091;28;20111;-63
2022/02/19 06:54:18;;;;;;;7.97;1.95;;;;;;;;;;5077887;28;20031;-62
2022/02/19 06:57:03;;;;;;;11.55;2.33;;;;;;;;;;5070681;28;20651;-65
2022/02/19 06:59:50;;;;;;;7.82;1.85;;;;;;;;;;5071303;28;20035;-65
2022/02/19 07:02:35;;;;;;;6.95;1.85;;;;;;;;;;5062738;28;20375;-65
2022/02/19 07:05:20;;;;;;;11.98;2.45;;;;;;;;;;5069073;28;20090;-70
2022/02/19 07:08:05;;;;;;;10.18;2.70;;;;;;;;;;5057323;28;20482;-68
2022/02/19 07:10:50;;;;;;;13.07;2.83;;;;;;;;;;5057604;28;20128;-66
2022/02/19 07:13:36;;;;;;;7.15;1.67;;;;;;;;;;5079845;28;20479;-68
2022/02/19 07:16:23;;;;;;;8.30;2.47;;;;;;;;;;5066490;28;20370;-68
2022/02/19 07:19:08;;;;;;;11.38;2.58;;;;;;;;;;5063282;28;20083;-67
2022/02/19 07:21:53;;;;;;;13.20;2.60;;;;;;;;;;5076621;28;20050;-68
2022/02/19 07:24:38;;;;;;;9.65;2.10;;;;;;;;;;5076786;28;20418;-66
2022/02/19 07:27:23;;;;;;;8.50;1.85;;;;;;;;;;5076221;28;20036;-73
2022/02/19 07:30:11;;;;;;;9.55;2.10;;;;;;;;;;5076882;28;20036;-73
2022/02/19 07:32:56;;;;;;;10.27;2.35;;;;;;;;;;5051661;28;20040;-73
2022/02/19 07:35:42;;;;;;;7.10;2.58;;;;;;;;;;5056478;28;20487;-73
2022/02/19 07:38:27;;;;;;;11.50;2.85;;;;;;;;;;5070248;28;20110;-73
2022/02/19 07:41:12;;;;;;;7.47;1.95;;;;;;;;;;5076783;28;20023;-66
2022/02/19 07:43:57;;;;;;;11.32;2.50;;;;;;;;;;5089552;28;20020;-72
2022/02/19 07:46:43;;;;;;;7.65;1.92;;;;;;;;;;5076551;28;20027;-72
2022/02/19 07:58:56;;;;;;;11.32;2.50;;;;;;;;;;5075644;28;20036;-72
2022/02/19 08:01:41;;;;;;;12.15;2.97;;;;;;;;;;5062475;28;20081;-70
2022/02/19 08:04:26;;;;;;;4.85;1.55;;;;;;;;;;5061141;28;20040;-67
2022/02/19 08:07:12;;;;;;;9.02;2.20;;;;;;;;;;5056009;28;20028;-67
2022/02/19 08:09:57;;;;;;;13.90;2.90;;;;;;;;;;5071940;28;20099;-68
2022/02/19 08:12:42;;;;;;;11.68;2.25;;;;;;;;;;5075597;28;20414;-67
2022/02/19 08:15:27;;;;;;;9.90;2.40;;;;;;;;;;5088900;28;20081;-65
2022/02/19 08:18:13;;;;;;;11.02;2.42;;;;;;;;;;5075873;28;20098;-64
2022/02/19 08:20:58;;;;;;;7.28;2.33;;;;;;;;;;5069938;28;20040;-69
2022/02/19 08:23:44;;;;;;;12.25;3.42;;;;;;;;;;5056504;28;20035;-70
2022/02/19 08:26:29;;;;;;;11.73;2.42;;;;;;;;;;5075635;28;20434;-73
2022/02/19 08:29:14;;;;;;;8.13;2.38;;;;;;;;;;5102899;28;20031;-70
2022/02/19 08:31:59;;;;;;;10.75;2.63;;;;;;;;;;5075415;28;20420;-70
2022/02/19 08:34:45;;;;;;;15.43;3.83;;;;;;;;;;5088483;28;20028;-72
2022/02/19 08:37:31;;;;;;;8.95;2.17;;;;;;;;;;5089568;28;20123;-66
2022/02/19 08:40:16;;;;;;;8.82;2.38;;;;;;;;;;5074945;28;20141;-71
2022/02/19 08:43:02;;;;;;;11.35;2.88;;;;;;;;;;5075697;28;20034;-70
2022/02/19 08:45:47;;;;;;;9.52;2.10;;;;;;;;;;5074889;28;20024;-71
2022/02/19 08:48:33;;;;;;;13.70;2.95;;;;;;;;;;5075411;28;20556;-69
2022/02/19 08:51:18;;;;;;;9.90;2.35;;;;;;;;;;5074531;28;20486;-72
2022/02/19 08:54:03;;;;;;;13.77;2.58;;;;;;;;;;5075233;28;20035;-68
2022/02/19 08:56:50;;;;;;;7.32;2.20;;;;;;;;;;5056905;28;20110;-67
2022/02/19 08:59:35;;;;;;;6.55;2.15;;;;;;;;;;5068286;28;20051;-68
2022/02/19 09:02:21;;;;;;;4.88;2.10;;;;;;;;;;5060550;28;20032;-69
2022/02/19 09:05:07;;;;;;;13.23;2.63;;;;;;;;;;5060710;28;20024;-69
2022/02/19 09:07:52;;;;;;;12.88;2.90;;;;;;;;;;5040801;28;20560;-69
2022/02/19 09:10:38;;;;;;;9.00;3.78;;;;;;;;;;5070403;28;20053;-68
2022/02/19 09:13:23;;;;;;;13.52;3.00;;;;;;;;;;5075276;28;20075;-67
2022/02/19 09:16:08;;;;;;;10.50;2.10;;;;;;;;;;5060501;28;20398;-63
2022/02/19 09:18:53;;;;;;;10.23;3.45;;;;;;;;;;5068216;28;20517;-65
2022/02/19 09:21:42;;;;;;;9.73;2.38;;;;;;;;;;5074344;28;20035;-64
2022/02/19 09:24:28;;;;;;;7.50;2.47;;;;;;;;;;5068761;28;20074;-66
2022/02/19 09:27:13;;;;;;;7.28;2.55;;;;;;;;;;5064634;28;20610;-65
2022/02/19 09:29:59;;;;;;;8.77;2.42;;;;;;;;;;5074971;28;20457;-64
2022/02/19 09:32:44;;;;;;;6.80;1.75;;;;;;;;;;5073881;28;20039;-68
2022/02/19 09:35:30;;;;;;;7.85;2.30;;;;;;;;;;5074793;28;20020;-74
2022/02/19 09:38:17;;;;;;;4.63;1.63;;;;;;;;;;5069473;28;20036;-72
2022/02/19 09:41:07;;;;;;;10.68;2.20;;;;;;;;;;5075023;28;20089;-71
2022/02/19 09:43:52;;;;;;;5.43;2.08;;;;;;;;;;5073825;28;20107;-71
2022/02/19 09:46:38;;;;;;;9.07;2.03;;;;;;;;;;5074652;28;20028;-71
2022/02/19 09:49:24;;;;;;;6.35;1.92;;;;;;;;;;5054527;28;20043;-66
2022/02/19 09:52:10;;;;;;;9.52;2.25;;;;;;;;;;5072352;28;20044;-69
2022/02/19 09:54:56;;;;;;;9.45;2.17;;;;;;;;;;5074264;28;20028;-72
2022/02/19 09:57:42;;;;;;;10.35;2.08;;;;;;;;;;5073171;28;20040;-72
2022/02/19 10:00:36;;;;;;;11.48;3.10;;;;;;;;;;5074651;28;20428;-71
2022/02/19 10:03:21;;;;;;;10.20;1.98;;;;;;;;;;5073818;28;20067;-72
2022/02/19 10:06:10;;;;;;;5.68;2.28;;;;;;;;;;5059687;28;20052;-73
2022/02/19 10:09:12;;;;;;;5.10;2.03;;;;;;;;;;5064815;28;20031;-69
2022/02/19 10:12:08;;;;;;;11.10;3.58;;;;;;;;;;5077319;28;20498;-69
2022/02/19 10:14:53;;;;;;;10.15;2.33;;;;;;;;;;5077756;28;20533;-70
2022/02/19 10:17:38;;;;;;;11.30;3.40;;;;;;;;;;5078347;28;20110;-71
2022/02/19 10:20:24;;;;;;;9.23;3.17;;;;;;;;;;5077567;28;20064;-70
2022/02/19 10:23:12;;;;;;;8.85;3.35;;;;;;;;;;5092316;28;20051;-71
2022/02/19 10:26:02;;;;;;;7.80;3.13;;;;;;;;;;5075705;28;20463;-65
2022/02/19 10:28:58;;;;;;;10.40;4.63;;;;;;;;;;5077610;28;20430;-69
2022/02/19 10:31:55;;;;;;;6.28;3.40;;;;;;;;;;5077750;28;20111;-66
2022/02/19 10:34:53;;;;;;;10.52;3.47;;;;;;;;;;5066356;28;20449;-65
2022/02/19 10:37:42;;;;;;;6.38;3.22;;;;;;;;;;5063890;28;20055;-65
2022/02/19 10:40:36;;;;;;;7.97;4.22;;;;;;;;;;5077299;28;20157;-64
2022/02/19 10:43:23;;;;;;;9.90;5.65;;;;;;;;;;5077890;28;20039;-65
2022/02/19 10:46:08;;;;;;;8.55;6.20;;;;;;;;;;5077168;28;20337;-64
2022/02/19 10:48:53;;;;;;;11.65;6.38;;;;;;;;;;5071696;28;20040;-66
2022/02/19 10:51:40;;;;;;;4.88;1.95;;;;;;;;;;5076957;28;20509;-69
2022/02/19 10:54:33;;;;;;;9.10;3.30;;;;;;;;;;5077305;28;20043;-67
2022/02/19 10:57:21;;;;;;;8.15;2.60;;;;;;;;;;5060622;28;20080;-70
2022/02/19 11:00:17;;;;;;;8.07;2.83;;;;;;;;;;5061210;28;20108;-68
2022/02/19 11:03:04;;;;;;;6.10;2.25;;;;;;;;;;5057239;28;20467;-72
2022/02/19 11:05:50;;;;;;;6.63;2.20;;;;;;;;;;5054621;28;20028;-72
2022/02/19 11:08:35;;;;;;;9.60;2.65;;;;;;;;;;5063410;28;20027;-66
2022/02/19 11:11:20;;;;;;;6.30;2.10;;;;;;;;;;5089906;28;20115;-65
2022/02/19 11:14:06;;;;;;;9.75;2.58;;;;;;;;;;5063236;28;20597;-65
2022/02/19 11:16:52;;;;;;;6.82;2.22;;;;;;;;;;5056337;28;20483;-65
2022/02/19 11:19:38;;;;;;;7.50;2.35;;;;;;;;;;5076958;28;20143;-63
2022/02/19 11:22:24;;;;;;;6.90;2.30;;;;;;;;;;5075846;28;20430;-64
2022/02/19 11:25:10;;;;;;;11.38;2.47;;;;;;;;;;5077225;28;20062;-69
2022/02/19 11:28:12;;;;;;;9.13;2.97;;;;;;;;;;5070036;28;20028;-70
2022/02/19 11:30:57;;;;;;;10.45;3.25;;;;;;;;;;5057600;28;20028;-69
2022/02/19 11:33:49;;;;;;;7.57;2.22;;;;;;;;;;5062822;28;20497;-69
2022/02/19 11:36:34;;;;;;;5.72;2.05;;;;;;;;;;5075999;28;20066;-69
2022/02/19 11:39:19;;;;;;;4.68;2.17;;;;;;;;;;5076721;28;20507;-71
2022/02/19 11:42:17;;;;;;;7.32;2.92;;;;;;;;;;5076170;28;20016;-67
2022/02/19 11:45:18;;;;;;;5.80;1.95;;;;;;;;;;5068045;28;20057;-72
2022/02/19 11:48:06;;;;;;;5.03;2.05;;;;;;;;;;5075977;28;20027;-70
2022/02/19 11:51:07;;;;;;;5.07;1.90;;;;;;;;;;5076234;28;20031;-71
2022/02/19 11:54:02;;;;;;;7.07;2.10;;;;;;;;;;5075473;28;20086;-69
2022/02/19 11:56:48;;;;;;;5.68;1.90;;;;;;;;;;5076054;28;20031;-71
2022/02/19 11:59:44;;;;;;;3.00;1.58;;;;;;;;;;5056652;28;20024;-68
2022/02/19 12:02:30;;;;;;;3.90;1.90;;;;;;;;;;5048598;28;20442;-72
2022/02/19 12:05:19;;;;;;;4.60;1.75;;;;;;;;;;5056283;28;20021;-72
2022/02/19 12:08:04;;;;;;;7.15;1.73;;;;;;;;;;5075325;28;20051;-72
2022/02/19 12:11:06;;;;;;;5.28;1.67;;;;;;;;;;5075930;28;20020;-73
2022/02/19 12:13:57;;;;;;;6.00;1.70;;;;;;;;;;5075467;28;20036;-72
2022/02/19 12:16:42;;;;;;;4.80;1.70;;;;;;;;;;5076039;28;20028;-68
2022/02/19 12:19:48;;;;;;;6.85;1.85;;;;;;;;;;5075011;28;20626;-68
2022/02/19 12:22:34;;;;;;;6.88;2.15;;;;;;;;;;5075824;28;20482;-66
2022/02/19 12:25:20;;;;;;;4.63;2.33;;;;;;;;;;5075778;28;20017;-68
2022/02/19 12:28:18;;;;;;;6.72;1.48;;;;;;;;;;5075745;28;20024;-67
2022/02/19 12:31:14;;;;;;;6.03;1.98;;;;;;;;;;5055937;28;20029;-64
2022/02/19 12:34:08;;;;;;;9.13;2.55;;;;;;;;;;5060853;28;20054;-66
2022/02/19 12:36:53;;;;;;;7.32;1.70;;;;;;;;;;5075754;28;20111;-66
2022/02/19 12:39:44;;;;;;;6.78;1.60;;;;;;;;;;5074468;28;20028;-65
2022/02/19 12:42:30;;;;;;;6.53;2.03;;;;;;;;;;5075806;28;20028;-66
2022/02/19 12:45:16;;;;;;;6.55;1.77;;;;;;;;;;5074851;28;20035;-68
2022/02/19 12:48:02;;;;;;;4.03;1.58;;;;;;;;;;5061801;28;20068;-65
2022/02/19 12:51:00;;;;;;;4.10;1.52;;;;;;;;;;5060939;28;20032;-66
2022/02/19 12:53:45;;;;;;;8.15;2.75;;;;;;;;;;5075233;28;20119;-66
2022/02/19 12:56:41;;;;;;;7.25;2.00;;;;;;;;;;5075036;28;20429;-71
2022/02/19 12:59:30;;;;;;;4.68;1.60;;;;;;;;;;5074774;28;20370;-68
2022/02/19 13:02:19;;;;;;;6.07;3.03;;;;;;;;;;5075398;28;20062;-68
2022/02/19 13:05:08;;;;;;;8.25;2.92;;;;;;;;;;5073743;28;20026;-67
2022/02/19 13:07:53;;;;;;;5.55;1.80;;;;;;;;;;5074644;28;20613;-68
2022/02/19 13:10:40;;;;;;;8.90;1.90;;;;;;;;;;5073860;28;20036;-68
2022/02/19 13:13:25;;;;;;;6.72;1.40;;;;;;;;;;5074899;28;20532;-65
2022/02/19 13:16:11;;;;;;;9.18;2.35;;;;;;;;;;5087969;28;20063;-71
2022/02/19 13:18:57;;;;;;;8.07;1.85;;;;;;;;;;5060788;28;20058;-73
2022/02/19 13:21:42;;;;;;;4.18;2.05;;;;;;;;;;5053944;28;20032;-71
2022/02/19 13:24:29;;;;;;;5.43;1.88;;;;;;;;;;5040598;28;20471;-70
2022/02/19 13:27:16;;;;;;;5.03;1.80;;;;;;;;;;5070948;28;20019;-71
2022/02/19 13:30:03;;;;;;;5.75;2.05;;;;;;;;;;5074942;28;20106;-70
2022/02/19 13:32:52;;;;;;;5.22;1.60;;;;;;;;;;5073952;28;20053;-63
2022/02/19 13:35:37;;;;;;;5.22;1.33;;;;;;;;;;5074769;28;20031;-67
2022/02/19 13:38:23;;;;;;;4.60;1.52;;;;;;;;;;5068333;28;20478;-63
2022/02/19 13:41:08;;;;;;;5.63;1.63;;;;;;;;;;5072795;28;20108;-63
2022/02/19 13:44:00;;;;;;;4.30;1.73;;;;;;;;;;5074632;28;20383;-63
2022/02/19 13:46:45;;;;;;;7.43;1.77;;;;;;;;;;5067316;28;20067;-67
2022/02/19 13:49:34;;;;;;;4.78;1.50;;;;;;;;;;5074325;28;20467;-68
2022/02/19 13:52:25;;;;;;;5.53;1.40;;;;;;;;;;5073207;28;20456;-66
2022/02/19 13:55:12;;;;;;;5.13;1.95;;;;;;;;;;5040631;28;20039;-65
2022/02/19 13:58:06;;;;;;;6.93;1.75;;;;;;;;;;5066884;28;20433;-63
2022/02/19 14:00:52;;;;;;;4.90;1.80;;;;;;;;;;5074686;28;20486;-65
2022/02/19 14:03:55;;;;;;;3.60;1.20;;;;;;;;;;5073769;28;20043;-64
2022/02/19 14:06:46;;;;;;;6.50;1.65;;;;;;;;;;5074318;28;20493;-66
2022/02/19 14:09:32;;;;;;;5.82;1.40;;;;;;;;;;5040361;28;20037;-65
2022/02/19 14:12:19;;;;;;;3.30;1.30;;;;;;;;;;5055766;28;20040;-68
2022/02/19 14:15:05;;;;;;;3.92;1.50;;;;;;;;;;5074418;28;20059;-69
2022/02/19 14:17:50;;;;;;;10.48;2.03;;;;;;;;;;5073706;28;20028;-68
2022/02/19 14:20:37;;;;;;;6.38;1.80;;;;;;;;;;5074353;28;20395;-68
2022/02/19 14:23:30;;;;;;;6.53;1.80;;;;;;;;;;5059757;28;20081;-70
2022/02/19 14:26:15;;;;;;;4.20;1.30;;;;;;;;;;5074135;28;20070;-65
2022/02/19 14:29:00;;;;;;;5.10;1.50;;;;;;;;;;5073444;28;20043;-70
2022/02/19 14:31:46;;;;;;;4.80;1.83;;;;;;;;;;5073702;28;20157;-71
2022/02/19 14:34:31;;;;;;;5.72;1.50;;;;;;;;;;5072753;28;20031;-71
2022/02/19 14:37:16;;;;;;;3.55;1.45;;;;;;;;;;5073988;28;20589;-72
2022/02/19 14:40:02;;;;;;;6.22;3.42;;;;;;;;;;5073050;28;20039;-71
2022/02/19 14:42:47;;;;;;;6.13;1.63;;;;;;;;;;5073588;28;20020;-72
2022/02/19 14:45:32;;;;;;;5.97;1.92;;;;;;;;;;5073287;28;20028;-70
2022/02/19 14:48:19;;;;;;;8.18;2.10;;;;;;;;;;5088263;28;20055;-66
2022/02/19 14:51:06;;;;;;;3.70;1.20;;;;;;;;;;5060131;28;20113;-67
2022/02/19 14:53:52;;;;;;;11.10;1.60;;;;;;;;;;5082551;28;20546;-68
2022/02/19 14:56:37;;;;;;;7.57;1.38;;;;;;;;;;5073817;28;20028;-65
2022/02/19 14:59:22;;;;;;;10.50;3.83;;;;;;;;;;5086044;28;20475;-65
2022/02/19 15:02:07;;;;;;;4.53;1.35;;;;;;;;;;5063810;28;20028;-65
2022/02/19 15:04:53;;;;;;;4.70;2.25;;;;;;;;;;5062552;28;20028;-71
2022/02/19 15:07:38;;;;;;;4.38;1.30;;;;;;;;;;5077726;28;20024;-64
2022/02/19 15:10:23;;;;;;;2.95;1.30;;;;;;;;;;5076714;28;20059;-66
2022/02/19 15:13:10;;;;;;;5.97;1.55;;;;;;;;;;5091029;28;20032;-67
2022/02/19 15:15:59;;;;;;;3.97;1.58;;;;;;;;;;5055626;28;20032;-66
2022/02/19 15:18:44;;;;;;;7.88;1.92;;;;;;;;;;5076883;28;20080;-66
2022/02/19 15:21:29;;;;;;;4.78;1.65;;;;;;;;;;5076466;28;20024;-66
2022/02/19 15:24:14;;;;;;;9.23;2.33;;;;;;;;;;5070629;28;20105;-68
2022/02/19 15:27:00;;;;;;;4.40;1.30;;;;;;;;;;5062377;28;20023;-66
2022/02/19 15:29:47;;;;;;;5.88;1.48;;;;;;;;;;5076696;28;20115;-66
2022/02/19 15:32:33;;;;;;;4.65;1.27;;;;;;;;;;5076229;28;20441;-68
2022/02/19 15:35:18;;;;;;;4.13;1.25;;;;;;;;;;5076329;28;20500;-68
2022/02/19 15:38:03;;;;;;;4.22;1.40;;;;;;;;;;5070385;28;20174;-67
2022/02/19 15:40:49;;;;;;;5.53;1.30;;;;;;;;;;5058962;28;20031;-68
2022/02/19 15:43:34;;;;;;;4.95;1.85;;;;;;;;;;5076699;28;20170;-65
2022/02/19 15:46:19;;;;;;;7.20;1.75;;;;;;;;;;5075949;28;20108;-65
2022/02/19 15:49:05;;;;;;;4.90;1.30;;;;;;;;;;5076648;28;20034;-65
2022/02/19 15:51:50;;;;;;;5.60;1.50;;;;;;;;;;5076091;28;20418;-64
2022/02/19 15:54:35;;;;;;;9.02;2.13;;;;;;;;;;5056351;28;20028;-65
2022/02/19 15:57:20;;;;;;;5.15;1.50;;;;;;;;;;5075308;28;20482;-67
2022/02/19 16:00:06;;;;;;;4.22;1.58;;;;;;;;;;5090419;28;20059;-70
2022/02/19 16:02:52;;;;;;;4.63;1.92;;;;;;;;;;5061996;28;20038;-68
2022/02/19 16:05:37;;;;;;;6.63;2.13;;;;;;;;;;5070224;28;20029;-67
2022/02/19 16:08:24;;;;;;;5.47;1.63;;;;;;;;;;5075508;28;20055;-69
2022/02/19 16:11:10;;;;;;;4.45;1.60;;;;;;;;;;5076350;28;20024;-65
2022/02/19 16:13:55;;;;;;;7.43;1.88;;;;;;;;;;5074788;28;20032;-65
2022/02/19 16:16:41;;;;;;;2.97;1.48;;;;;;;;;;5076340;28;20383;-67
2022/02/19 16:19:26;;;;;;;4.03;1.88;;;;;;;;;;5049653;28;20075;-64
2022/02/19 16:22:11;;;;;;;8.05;1.60;;;;;;;;;;5036541;28;20044;-63
2022/02/19 16:24:57;;;;;;;7.13;2.95;;;;;;;;;;5055715;28;20347;-66
2022/02/19 16:27:42;;;;;;;6.30;1.83;;;;;;;;;;5041369;28;20111;-65
2022/02/19 16:30:27;;;;;;;5.15;1.90;;;;;;;;;;5053790;28;20039;-64
2022/02/19 16:33:13;;;;;;;5.93;1.58;;;;;;;;;;5054969;28;20625;-64
2022/02/19 16:36:02;;;;;;;4.28;1.95;;;;;;;;;;5069413;28;20031;-64
2022/02/19 16:38:48;;;;;;;6.40;2.00;;;;;;;;;;5054527;28;20102;-65
2022/02/19 16:41:33;;;;;;;3.63;1.33;;;;;;;;;;5055533;28;20061;-65
2022/02/19 16:44:18;;;;;;;5.18;2.65;;;;;;;;;;5040805;28;20036;-64